createdAt,value
2018-12-30T00:01:18.082Z,95774.16
2018-12-30T00:03:49.437Z,95777.06
2018-12-30T00:06:21.034Z,95779.02
2018-12-30T00:08:52.654Z,95781.98
2018-12-30T00:11:23.895Z,95785.29
2018-12-30T00:13:55.043Z,95782.50
2018-12-30T00:16:26.557Z,95779.92
2018-12-30T00:18:57.764Z,95786.94
2018-12-30T00:21:29.346Z,95783.53
2018-12-30T00:24:00.787Z,95784.72
2018-12-30T00:26:32.221Z,95780.23
2018-12-30T00:29:04.000Z,95782.62
2018-12-30T00:31:35.375Z,95788.07
2018-12-30T00:34:06.861Z,95788.59
2018-12-30T00:36:38.335Z,95781.52
2018-12-30T00:39:09.834Z,95789.98
2018-12-30T00:41:41.166Z,95788.95
2018-12-30T00:44:12.528Z,95778.64
2018-12-30T00:46:44.070Z,95783.03
2018-12-30T00:49:15.486Z,95778.84
2018-12-30T00:51:47.023Z,95776.17
2018-12-30T00:54:18.190Z,95779.41
2018-12-30T00:56:49.566Z,95776.38
2018-12-30T00:59:20.860Z,95781.43
2018-12-30T01:01:52.235Z,95786.95
2018-12-30T01:04:23.753Z,95788.07
2018-12-30T01:06:55.145Z,95780.20
2018-12-30T01:09:26.589Z,95779.94
2018-12-30T01:11:57.998Z,95780.50
2018-12-30T01:14:29.330Z,95783.64
2018-12-30T01:17:00.739Z,95777.26
2018-12-30T01:19:32.241Z,95768.80
2018-12-30T01:22:03.549Z,95764.67
2018-12-30T01:24:34.701Z,95765.87
2018-12-30T01:27:06.426Z,95761.59
2018-12-30T01:29:37.940Z,95762.26
2018-12-30T01:32:09.383Z,95750.42
2018-12-30T01:34:40.530Z,95758.61
2018-12-30T01:37:11.705Z,95752.47
2018-12-30T01:39:42.906Z,95758.36
2018-12-30T01:42:14.054Z,95751.81
2018-12-30T01:44:45.169Z,95745.30
2018-12-30T01:47:16.353Z,95755.67
2018-12-30T01:49:47.737Z,95746.59
2018-12-30T01:52:19.035Z,95753.13
2018-12-30T01:54:50.447Z,95749.80
2018-12-30T01:57:21.889Z,95750.20
2018-12-30T01:59:53.200Z,95742.63
2018-12-30T02:02:24.691Z,95737.78
2018-12-30T02:04:56.201Z,95731.97
2018-12-30T02:07:27.314Z,95735.66
2018-12-30T02:09:58.513Z,95724.44
2018-12-30T02:12:29.982Z,95724.92
2018-12-30T02:15:01.290Z,95722.61
2018-12-30T02:17:32.771Z,95723.34
2018-12-30T02:20:04.291Z,95715.88
2018-12-30T02:22:35.753Z,95717.70
2018-12-30T02:25:07.085Z,95714.79
2018-12-30T02:27:38.679Z,95708.81
2018-12-30T02:30:10.145Z,95710.45
2018-12-30T02:32:41.970Z,95708.91
2018-12-30T02:35:13.346Z,95705.94
2018-12-30T02:37:44.700Z,95706.14
2018-12-30T02:40:16.044Z,95704.91
2018-12-30T02:42:47.738Z,95702.34
2018-12-30T02:45:18.896Z,95693.42
2018-12-30T02:47:50.011Z,95698.77
2018-12-30T02:50:21.370Z,95698.94
2018-12-30T02:52:53.002Z,95695.80
2018-12-30T02:55:24.447Z,95688.83
2018-12-30T02:57:55.905Z,95690.30
2018-12-30T03:00:27.346Z,95689.02
2018-12-30T03:02:58.863Z,95689.84
2018-12-30T03:05:31.256Z,95682.94
2018-12-30T03:08:02.815Z,95680.45
2018-12-30T03:10:34.366Z,95683.78
2018-12-30T03:13:05.824Z,95674.84
2018-12-30T03:15:37.075Z,95676.96
2018-12-30T03:18:08.256Z,95670.06
2018-12-30T03:20:39.801Z,95670.96
2018-12-30T03:23:11.152Z,95671.70
2018-12-30T03:25:42.272Z,95669.95
2018-12-30T03:28:13.462Z,95667.28
2018-12-30T03:30:44.683Z,95666.75
2018-12-30T03:33:16.037Z,95661.85
2018-12-30T03:35:47.445Z,95662.05
2018-12-30T03:38:18.569Z,95662.16
2018-12-30T03:40:49.982Z,95656.42
2018-12-30T03:43:21.333Z,95647.41
2018-12-30T03:45:52.605Z,95647.77
2018-12-30T03:48:24.186Z,95643.38
2018-12-30T03:50:55.558Z,95651.11
2018-12-30T03:53:26.763Z,95648.34
2018-12-30T03:55:58.291Z,95649.89
2018-12-30T03:58:29.735Z,95651.55
2018-12-30T04:01:01.191Z,95649.27
2018-12-30T04:03:32.925Z,95652.11
2018-12-30T04:06:04.504Z,95648.43
2018-12-30T04:08:35.849Z,95651.47
2018-12-30T04:11:07.318Z,95648.23
2018-12-30T04:13:38.474Z,95653.20
2018-12-30T04:16:09.889Z,95652.38
2018-12-30T04:18:41.322Z,95651.08
2018-12-30T04:21:12.753Z,95651.17
2018-12-30T04:23:43.969Z,95648.98
2018-12-30T04:26:15.373Z,95657.34
2018-12-30T04:28:46.901Z,95651.56
2018-12-30T04:31:18.213Z,95655.52
2018-12-30T04:33:49.912Z,95653.57
2018-12-30T04:36:21.216Z,95656.59
2018-12-30T04:38:52.708Z,95660.91
2018-12-30T04:41:24.162Z,95654.30
2018-12-30T04:43:55.635Z,95651.23
2018-12-30T04:46:27.106Z,95647.83
2018-12-30T04:48:58.459Z,95651.60
2018-12-30T04:51:29.720Z,95645.34
2018-12-30T04:54:01.038Z,95651.40
2018-12-30T04:56:32.291Z,95647.68
2018-12-30T04:59:03.638Z,95653.84
2018-12-30T05:01:34.714Z,95650.65
2018-12-30T05:04:06.083Z,95648.53
2018-12-30T05:06:37.341Z,95654.23
2018-12-30T05:09:09.077Z,95656.89
2018-12-30T05:11:40.474Z,95656.58
2018-12-30T05:14:11.946Z,95659.98
2018-12-30T05:16:43.361Z,95658.18
2018-12-30T05:19:14.932Z,95655.59
2018-12-30T05:21:46.200Z,95649.54
2018-12-30T05:24:17.639Z,95655.98
2018-12-30T05:26:49.082Z,95657.00
2018-12-30T05:29:20.494Z,95653.41
2018-12-30T05:31:51.862Z,95656.09
2018-12-30T05:34:23.239Z,95653.33
2018-12-30T05:36:54.682Z,95652.77
2018-12-30T05:39:26.356Z,95652.32
2018-12-30T05:41:58.974Z,95644.77
2018-12-30T05:44:30.545Z,95646.63
2018-12-30T05:47:01.854Z,95646.44
2018-12-30T05:49:33.312Z,95643.13
2018-12-30T05:52:04.752Z,95651.06
2018-12-30T05:54:36.307Z,95647.77
2018-12-30T05:57:07.653Z,95653.95
2018-12-30T05:59:39.050Z,95651.44
2018-12-30T06:02:10.414Z,95645.62
2018-12-30T06:04:42.025Z,95658.25
2018-12-30T06:07:13.405Z,95660.55
2018-12-30T06:09:44.889Z,95660.09
2018-12-30T06:12:16.307Z,95659.62
2018-12-30T06:14:47.769Z,95661.09
2018-12-30T06:17:19.236Z,95660.64
2018-12-30T06:19:50.346Z,95656.03
2018-12-30T06:22:21.500Z,95656.84
2018-12-30T06:24:53.103Z,95663.18
2018-12-30T06:27:24.188Z,95660.68
2018-12-30T06:29:55.535Z,95667.48
2018-12-30T06:32:26.738Z,95662.25
2018-12-30T06:34:58.285Z,95667.78
2018-12-30T06:37:29.671Z,95671.51
2018-12-30T06:40:01.006Z,95681.34
2018-12-30T06:42:32.499Z,95683.55
2018-12-30T06:45:04.218Z,95682.52
2018-12-30T06:47:35.667Z,95688.25
2018-12-30T06:50:07.324Z,95683.81
2018-12-30T06:52:38.698Z,95682.88
2018-12-30T06:55:10.220Z,95682.33
2018-12-30T06:57:41.511Z,95685.65
2018-12-30T07:00:12.899Z,95689.72
2018-12-30T07:02:44.403Z,95687.58
2018-12-30T07:05:16.753Z,95684.00
2018-12-30T07:07:47.929Z,95686.78
2018-12-30T07:10:19.389Z,95675.97
2018-12-30T07:12:50.574Z,95683.28
2018-12-30T07:15:22.061Z,95681.13
2018-12-30T07:17:53.555Z,95676.00
2018-12-30T07:20:25.137Z,95678.22
2018-12-30T07:22:56.855Z,95675.08
2018-12-30T07:25:28.395Z,95681.42
2018-12-30T07:27:59.581Z,95685.00
2018-12-30T07:30:30.995Z,95680.93
2018-12-30T07:33:02.201Z,95680.83
2018-12-30T07:35:33.317Z,95677.68
2018-12-30T07:38:04.525Z,95678.04
2018-12-30T07:40:36.032Z,95685.25
2018-12-30T07:43:07.374Z,95682.89
2018-12-30T07:45:38.907Z,95686.19
2018-12-30T07:48:10.294Z,95688.72
2018-12-30T07:50:41.465Z,95688.01
2018-12-30T07:53:13.907Z,95688.91
2018-12-30T07:55:45.256Z,95690.91
2018-12-30T07:58:16.347Z,95690.02
2018-12-30T08:00:47.512Z,95694.22
2018-12-30T08:03:18.755Z,95695.17
2018-12-30T08:05:50.394Z,95696.67
2018-12-30T08:08:21.456Z,95693.21
2018-12-30T08:10:52.857Z,95690.63
2018-12-30T08:13:24.251Z,95695.61
2018-12-30T08:15:55.720Z,95688.39
2018-12-30T08:18:26.834Z,95691.90
2018-12-30T08:20:58.176Z,95692.83
2018-12-30T08:23:29.325Z,95694.81
2018-12-30T08:26:00.516Z,95691.77
2018-12-30T08:28:31.736Z,95691.30
2018-12-30T08:31:03.101Z,95697.01
2018-12-30T08:33:34.460Z,95701.81
2018-12-30T08:36:05.598Z,95707.98
2018-12-30T08:38:36.795Z,95710.45
2018-12-30T08:41:08.108Z,95710.50
2018-12-30T08:43:39.226Z,95708.73
2018-12-30T08:46:10.495Z,95708.84
2018-12-30T08:48:42.122Z,95710.38
2018-12-30T08:51:13.459Z,95708.13
2018-12-30T08:53:45.039Z,95706.52
2018-12-30T08:56:16.305Z,95700.34
2018-12-30T08:58:47.416Z,95704.60
2018-12-30T09:01:19.080Z,95703.96
2018-12-30T09:03:50.476Z,95703.72
2018-12-30T09:06:21.719Z,95702.42
2018-12-30T09:08:53.046Z,95702.82
2018-12-30T09:11:24.442Z,95703.03
2018-12-30T09:13:56.070Z,95693.03
2018-12-30T09:16:27.375Z,95701.88
2018-12-30T09:18:58.810Z,95688.97
2018-12-30T09:21:30.291Z,95697.75
2018-12-30T09:24:01.462Z,95686.64
2018-12-30T09:26:33.019Z,95688.86
2018-12-30T09:29:04.620Z,95689.58
2018-12-30T09:31:35.998Z,95684.42
2018-12-30T09:34:07.443Z,95681.34
2018-12-30T09:36:39.793Z,95681.48
2018-12-30T09:39:11.148Z,95676.83
2018-12-30T09:41:42.582Z,95682.78
2018-12-30T09:44:14.057Z,95680.52
2018-12-30T09:46:45.687Z,95675.64
2018-12-30T09:49:17.115Z,95679.23
2018-12-30T09:51:48.537Z,95680.02
2018-12-30T09:54:19.866Z,95670.84
2018-12-30T09:56:50.937Z,95668.31
2018-12-30T09:59:22.460Z,95667.16
2018-12-30T10:01:54.047Z,95660.46
2018-12-30T10:04:25.395Z,95660.04
2018-12-30T10:06:56.897Z,95658.70
2018-12-30T10:09:28.256Z,95654.59
2018-12-30T10:11:59.717Z,95650.89
2018-12-30T10:14:31.182Z,95645.30
2018-12-30T10:17:02.365Z,95645.78
2018-12-30T10:19:33.844Z,95644.59
2018-12-30T10:22:05.311Z,95647.94
2018-12-30T10:24:36.840Z,95634.50
2018-12-30T10:27:08.327Z,95637.79
2018-12-30T10:29:39.674Z,95629.58
2018-12-30T10:32:10.988Z,95630.62
2018-12-30T10:34:42.412Z,95625.75
2018-12-30T10:37:13.870Z,95621.13
2018-12-30T10:39:45.313Z,95616.22
2018-12-30T10:42:16.662Z,95616.87
2018-12-30T10:44:48.146Z,95618.34
2018-12-30T10:47:19.381Z,95613.61
2018-12-30T10:49:51.948Z,95607.27
2018-12-30T10:52:23.387Z,95608.30
2018-12-30T10:54:54.688Z,95603.14
2018-12-30T10:57:26.172Z,95609.63
2018-12-30T10:59:57.544Z,95606.98
2018-12-30T11:02:28.974Z,95600.09
2018-12-30T11:05:00.297Z,95598.23
2018-12-30T11:07:31.691Z,95592.75
2018-12-30T11:10:03.150Z,95592.53
2018-12-30T11:12:34.557Z,95589.59
2018-12-30T11:15:06.466Z,95588.95
2018-12-30T11:17:37.885Z,95581.28
2018-12-30T11:20:09.456Z,95583.86
2018-12-30T11:22:40.812Z,95582.45
2018-12-30T11:25:11.903Z,95584.81
2018-12-30T11:27:43.414Z,95584.08
2018-12-30T11:30:14.987Z,95581.83
2018-12-30T11:32:46.536Z,95580.75
2018-12-30T11:35:17.986Z,95579.97
2018-12-30T11:37:49.396Z,95584.77
2018-12-30T11:40:20.876Z,95583.86
2018-12-30T11:42:52.203Z,95586.58
2018-12-30T11:45:23.635Z,95583.58
2018-12-30T11:47:55.092Z,95578.08
2018-12-30T11:50:26.454Z,95575.35
2018-12-30T11:52:57.921Z,95572.07
2018-12-30T11:55:29.342Z,95570.25
2018-12-30T11:58:00.850Z,95571.18
2018-12-30T12:00:32.195Z,95578.56
2018-12-30T12:03:03.616Z,95573.05
2018-12-30T12:05:34.977Z,95570.82
2018-12-30T12:08:06.229Z,95569.04
2018-12-30T12:10:37.355Z,95571.83
2018-12-30T12:13:08.844Z,95577.20
2018-12-30T12:15:39.870Z,95580.86
2018-12-30T12:18:11.373Z,95578.73
2018-12-30T12:20:42.658Z,95573.62
2018-12-30T12:23:14.370Z,95576.30
2018-12-30T12:25:45.487Z,95572.80
2018-12-30T12:28:16.947Z,95576.92
2018-12-30T12:30:48.179Z,95577.33
2018-12-30T12:33:19.592Z,95573.55
2018-12-30T12:35:51.001Z,95582.74
2018-12-30T12:38:22.441Z,95571.08
2018-12-30T12:40:54.788Z,95576.38
2018-12-30T12:43:26.231Z,95578.31
2018-12-30T12:45:57.526Z,95577.59
2018-12-30T12:48:28.667Z,95579.96
2018-12-30T12:50:59.995Z,95576.09
2018-12-30T12:53:31.107Z,95578.53
2018-12-30T12:56:02.530Z,95579.72
2018-12-30T12:58:33.818Z,95575.45
2018-12-30T13:01:04.995Z,95571.41
2018-12-30T13:03:36.604Z,95576.70
2018-12-30T13:06:07.900Z,95577.34
2018-12-30T13:08:39.359Z,95574.69
2018-12-30T13:11:10.466Z,95576.67
2018-12-30T13:13:41.752Z,95574.20
2018-12-30T13:16:14.159Z,95576.03
2018-12-30T13:18:45.480Z,95575.31
2018-12-30T13:21:16.942Z,95569.22
2018-12-30T13:23:48.363Z,95573.34
2018-12-30T13:26:19.446Z,95578.42
2018-12-30T13:28:50.900Z,95570.69
2018-12-30T13:31:22.056Z,95564.99
2018-12-30T13:33:53.140Z,95569.97
2018-12-30T13:36:25.497Z,95571.15
2018-12-30T13:38:56.793Z,95563.81
2018-12-30T13:41:28.318Z,95571.52
2018-12-30T13:43:59.666Z,95572.52
2018-12-30T13:46:32.685Z,95571.97
2018-12-30T13:49:03.980Z,95571.94
2018-12-30T13:51:35.404Z,95579.49
2018-12-30T13:54:06.597Z,95576.66
2018-12-30T13:56:37.778Z,95575.63
2018-12-30T13:59:09.053Z,95575.63
2018-12-30T14:01:40.490Z,95573.41
2018-12-30T14:04:11.988Z,95577.09
2018-12-30T14:06:43.424Z,95572.19
2018-12-30T14:09:14.919Z,95571.41
2018-12-30T14:11:46.209Z,95573.09
2018-12-30T14:14:17.637Z,95569.93
2018-12-30T14:16:48.966Z,95567.36
2018-12-30T14:19:20.577Z,95569.61
2018-12-30T14:21:52.104Z,95573.09
2018-12-30T14:24:23.689Z,95570.41
2018-12-30T14:26:59.852Z,95567.64
2018-12-30T14:29:27.597Z,95571.89
2018-12-30T14:31:59.020Z,95566.91
2018-12-30T14:34:30.511Z,95572.07
2018-12-30T14:37:01.867Z,95566.95
2018-12-30T14:39:33.308Z,95575.08
2018-12-30T14:42:04.711Z,95573.26
2018-12-30T14:44:37.063Z,95574.03
2018-12-30T14:47:08.779Z,95574.61
2018-12-30T14:49:40.182Z,95576.67
2018-12-30T14:52:11.330Z,95574.20
2018-12-30T14:54:43.048Z,95581.77
2018-12-30T14:57:14.453Z,95581.94
2018-12-30T14:59:45.908Z,95580.48
2018-12-30T15:02:17.446Z,95579.24
2018-12-30T15:04:48.840Z,95586.08
2018-12-30T15:07:20.103Z,95580.52
2018-12-30T15:09:51.741Z,95587.87
2018-12-30T15:12:23.146Z,95580.22
2018-12-30T15:14:54.472Z,95585.38
2018-12-30T15:17:25.890Z,95586.75
2018-12-30T15:19:57.319Z,95587.22
2018-12-30T15:22:28.659Z,95583.52
2018-12-30T15:25:00.268Z,95589.73
2018-12-30T15:27:31.536Z,95586.73
2018-12-30T15:30:03.194Z,95591.59
2018-12-30T15:32:34.422Z,95593.35
2018-12-30T15:35:06.110Z,95589.30
2018-12-30T15:37:37.458Z,95592.00
2018-12-30T15:40:08.853Z,95592.53
2018-12-30T15:42:40.082Z,95589.64
2018-12-30T15:45:11.223Z,95587.41
2018-12-30T15:47:42.648Z,95586.01
2018-12-30T15:50:14.040Z,95593.80
2018-12-30T15:52:45.181Z,95594.16
2018-12-30T15:55:19.619Z,95593.08
2018-12-30T15:57:49.769Z,95592.64
2018-12-30T16:00:21.120Z,95588.95
2018-12-30T16:02:52.296Z,95590.17
2018-12-30T16:05:23.832Z,95590.10
2018-12-30T16:07:55.154Z,95595.37
2018-12-30T16:10:26.579Z,95594.11
2018-12-30T16:12:57.677Z,95602.96
2018-12-30T16:15:28.800Z,95600.20
2018-12-30T16:18:00.132Z,95599.58
2018-12-30T16:20:31.581Z,95596.20
2018-12-30T16:23:03.057Z,95601.44
2018-12-30T16:25:34.654Z,95598.42
2018-12-30T16:28:05.897Z,95604.14
2018-12-30T16:30:37.292Z,95599.14
2018-12-30T16:33:08.806Z,95601.46
2018-12-30T16:35:40.102Z,95607.64
2018-12-30T16:38:11.548Z,95605.78
2018-12-30T16:40:42.658Z,95611.32
2018-12-30T16:43:13.766Z,95610.03
2018-12-30T16:45:45.236Z,95609.31
2018-12-30T16:48:16.670Z,95608.74
2018-12-30T16:50:57.145Z,95608.55
2018-12-30T16:53:28.541Z,95613.91
2018-12-30T16:55:59.939Z,95607.26
2018-12-30T16:58:31.060Z,95608.27
2018-12-30T17:01:02.631Z,95609.64
2018-12-30T17:03:34.108Z,95611.19
2018-12-30T17:06:05.555Z,95611.27
2018-12-30T17:08:36.839Z,95615.80
2018-12-30T17:11:08.225Z,95615.34
2018-12-30T17:13:39.671Z,95621.97
2018-12-30T17:16:11.174Z,95619.59
2018-12-30T17:18:42.530Z,95620.05
2018-12-30T17:21:14.046Z,95622.54
2018-12-30T17:23:45.256Z,95627.05
2018-12-30T17:26:16.831Z,95630.38
2018-12-30T17:28:48.120Z,95634.98
2018-12-30T17:31:19.208Z,95636.45
2018-12-30T17:33:50.487Z,95630.27
2018-12-30T17:36:21.832Z,95634.94
2018-12-30T17:38:53.213Z,95636.05
2018-12-30T17:41:24.831Z,95633.08
2018-12-30T17:43:56.138Z,95634.55
2018-12-30T17:46:27.412Z,95629.03
2018-12-30T17:48:58.935Z,95634.37
2018-12-30T17:51:30.422Z,95636.48
2018-12-30T17:54:01.715Z,95628.75
2018-12-30T17:56:33.167Z,95633.66
2018-12-30T17:59:04.663Z,95634.86
2018-12-30T18:01:35.946Z,95637.70
2018-12-30T18:04:07.401Z,95641.46
2018-12-30T18:06:38.782Z,95641.95
2018-12-30T18:09:10.037Z,95638.94
2018-12-30T18:11:41.255Z,95633.95
2018-12-30T18:14:12.571Z,95643.16
2018-12-30T18:16:43.870Z,95641.50
2018-12-30T18:19:15.170Z,95637.61
2018-12-30T18:21:46.600Z,95634.94
2018-12-30T18:24:17.879Z,95639.25
2018-12-30T18:26:49.401Z,95635.77
2018-12-30T18:29:21.249Z,95640.44
2018-12-30T18:31:52.767Z,95640.33
2018-12-30T18:34:24.139Z,95641.77
2018-12-30T18:36:55.293Z,95639.19
2018-12-30T18:39:26.629Z,95637.47
2018-12-30T18:41:58.078Z,95634.34
2018-12-30T18:44:29.396Z,95635.56
2018-12-30T18:47:00.775Z,95637.03
2018-12-30T18:49:32.106Z,95635.17
2018-12-30T18:52:03.525Z,95639.06
2018-12-30T18:54:34.784Z,95634.91
2018-12-30T18:57:06.206Z,95634.81
2018-12-30T18:59:37.996Z,95633.81
2018-12-30T19:02:09.493Z,95634.55
2018-12-30T19:04:41.644Z,95630.22
2018-12-30T19:07:12.994Z,95630.55
2018-12-30T19:09:44.151Z,95634.03
2018-12-30T19:12:15.638Z,95632.59
2018-12-30T19:14:47.116Z,95634.42
2018-12-30T19:17:18.575Z,95628.83
2018-12-30T19:19:49.936Z,95630.27
2018-12-30T19:22:21.250Z,95633.81
2018-12-30T19:24:52.374Z,95629.27
2018-12-30T19:27:23.567Z,95631.07
2018-12-30T19:29:54.689Z,95635.23
2018-12-30T19:32:25.865Z,95633.56
2018-12-30T19:34:57.338Z,95628.45
2018-12-30T19:37:28.523Z,95626.48
2018-12-30T19:39:59.748Z,95619.22
2018-12-30T19:42:31.247Z,95621.18
2018-12-30T19:45:02.461Z,95620.72
2018-12-30T19:47:33.622Z,95614.97
2018-12-30T19:50:05.122Z,95620.67
2018-12-30T19:52:36.522Z,95617.73
2018-12-30T19:55:08.060Z,95623.20
2018-12-30T19:57:39.311Z,95620.42
2018-12-30T20:00:12.037Z,95624.12
2018-12-30T20:02:43.221Z,95619.66
2018-12-30T20:05:14.354Z,95614.98
2018-12-30T20:07:45.870Z,95616.73
2018-12-30T20:10:16.935Z,95610.80
2018-12-30T20:12:48.357Z,95613.92
2018-12-30T20:15:19.755Z,95618.17
2018-12-30T20:17:51.121Z,95612.55
2018-12-30T20:20:22.565Z,95608.14
2018-12-30T20:22:53.892Z,95614.06
2018-12-30T20:25:25.312Z,95611.13
2018-12-30T20:27:56.791Z,95611.31
2018-12-30T20:30:28.153Z,95601.27
2018-12-30T20:32:59.554Z,95604.35
2018-12-30T20:35:30.792Z,95602.63
2018-12-30T20:38:02.150Z,95605.10
2018-12-30T20:40:33.251Z,95603.70
2018-12-30T20:43:04.649Z,95603.92
2018-12-30T20:45:35.747Z,95601.70
2018-12-30T20:48:06.858Z,95602.89
2018-12-30T20:50:38.106Z,95598.73
2018-12-30T20:53:09.678Z,95599.38
2018-12-30T20:55:41.157Z,95592.00
2018-12-30T20:58:12.477Z,95597.73
2018-12-30T21:00:43.609Z,95595.25
2018-12-30T21:03:14.759Z,95603.58
2018-12-30T21:05:46.093Z,95603.83
2018-12-30T21:08:17.454Z,95601.19
2018-12-30T21:10:48.982Z,95603.17
2018-12-30T21:13:20.350Z,95592.92
2018-12-30T21:15:51.832Z,95601.02
2018-12-30T21:18:23.341Z,95597.27
2018-12-30T21:20:54.795Z,95602.78
2018-12-30T21:23:26.234Z,95603.68
2018-12-30T21:25:57.770Z,95600.34
2018-12-30T21:28:29.069Z,95602.34
2018-12-30T21:31:00.449Z,95600.23
2018-12-30T21:33:31.655Z,95602.78
2018-12-30T21:36:03.035Z,95600.95
2018-12-30T21:38:34.257Z,95606.67
2018-12-30T21:41:05.806Z,95600.53
2018-12-30T21:43:37.322Z,95598.07
2018-12-30T21:46:08.750Z,95600.31
2018-12-30T21:48:40.201Z,95595.41
2018-12-30T21:51:11.513Z,95596.41
2018-12-30T21:53:42.917Z,95600.29
2018-12-30T21:56:15.176Z,95596.51
2018-12-30T21:58:46.557Z,95595.09
2018-12-30T22:01:17.899Z,95600.25
2018-12-30T22:03:49.201Z,95602.27
2018-12-30T22:06:20.604Z,95603.81
2018-12-30T22:08:52.064Z,95601.28
2018-12-30T22:11:23.179Z,95599.27
2018-12-30T22:13:54.295Z,95596.59
2018-12-30T22:16:25.626Z,95599.99
2018-12-30T22:18:56.824Z,95593.36
2018-12-30T22:21:28.483Z,95591.32
2018-12-30T22:23:59.723Z,95580.19
2018-12-30T22:26:30.968Z,95597.59
2018-12-30T22:29:02.315Z,95590.28
2018-12-30T22:31:33.363Z,95592.64
2018-12-30T22:34:04.554Z,95591.92
2018-12-30T22:36:35.635Z,95591.72
2018-12-30T22:39:08.300Z,95588.91
2018-12-30T22:41:39.383Z,95586.05
2018-12-30T22:44:10.750Z,95586.20
2018-12-30T22:46:41.861Z,95586.48
2018-12-30T22:49:13.206Z,95592.25
2018-12-30T22:51:44.573Z,95590.06
2018-12-30T22:54:15.978Z,95583.11
2018-12-30T22:56:47.294Z,95581.33
2018-12-30T22:59:18.581Z,95583.34
2018-12-30T23:01:50.046Z,95583.88
2018-12-30T23:04:21.572Z,95580.73
2018-12-30T23:06:52.786Z,95578.83
2018-12-30T23:09:24.298Z,95579.31
2018-12-30T23:11:55.959Z,95583.26
2018-12-30T23:14:27.288Z,95580.39
2018-12-30T23:16:58.899Z,95579.29
2018-12-30T23:19:30.322Z,95578.17
2018-12-30T23:22:01.714Z,95568.98
2018-12-30T23:24:33.043Z,95569.38
2018-12-30T23:27:04.476Z,95570.30
2018-12-30T23:29:35.827Z,95562.93
2018-12-30T23:32:07.270Z,95561.93
2018-12-30T23:34:38.728Z,95561.56
2018-12-30T23:37:09.911Z,95560.80
2018-12-30T23:39:41.460Z,95566.70
2018-12-30T23:42:13.103Z,95567.17
2018-12-30T23:44:44.559Z,95568.00
2018-12-30T23:47:15.948Z,95568.29
2018-12-30T23:49:47.366Z,95571.04
2018-12-30T23:52:18.810Z,95570.02
2018-12-30T23:54:50.233Z,95566.41
2018-12-30T23:57:21.788Z,95576.88
2018-12-30T23:59:52.913Z,95572.69
